< < Back
Terminal Aerodrome Forecast


Current Version              Previous Versions:   1  2  3  4  5  6  7  8  9  

Terminal Aerodrome Forecast

344
FTUS44 KBMX 290910 AAA
TAFBHM
TAF AMD
KBHM 290910Z 2909/3006 VRB03KT P6SM VCSH SCT040
     FM291800 34008KT P6SM VCTS SCT040CB=

Latest METAR

144
SAUS70 KWBC 301000 RRC
MTRBHM
METAR KBHM 300953Z 00000KT 7SM CLR 24/23 A3001 RMK AO2 SLP153
T02440233


USA.gov is the U.S. government's official web portal to all federal, state and local government web resources and services.